sensor_id;sensor_type;location;lat;lon;timestamp;P1;durP1;ratioP1;P2;durP2;ratioP2
17574;SDS011;8906;43.590;1.418;2022-07-10T00:02:10;2.38;;;2.25;;
17574;SDS011;8906;43.590;1.418;2022-07-10T00:04:37;4.00;;;2.38;;
17574;SDS011;8906;43.590;1.418;2022-07-10T00:07:04;2.63;;;2.42;;
17574;SDS011;8906;43.590;1.418;2022-07-10T00:09:32;3.20;;;2.17;;
17574;SDS011;8906;43.590;1.418;2022-07-10T00:11:59;4.20;;;3.80;;
17574;SDS011;8906;43.590;1.418;2022-07-10T00:14:27;4.85;;;3.97;;
17574;SDS011;8906;43.590;1.418;2022-07-10T00:16:54;6.75;;;3.70;;
17574;SDS011;8906;43.590;1.418;2022-07-10T00:19:21;3.63;;;2.97;;
17574;SDS011;8906;43.590;1.418;2022-07-10T00:21:48;2.58;;;2.40;;
17574;SDS011;8906;43.590;1.418;2022-07-10T00:24:15;2.47;;;2.28;;
17574;SDS011;8906;43.590;1.418;2022-07-10T00:26:42;3.75;;;3.03;;
17574;SDS011;8906;43.590;1.418;2022-07-10T00:29:09;5.93;;;3.30;;
17574;SDS011;8906;43.590;1.418;2022-07-10T00:31:37;2.97;;;2.53;;
17574;SDS011;8906;43.590;1.418;2022-07-10T00:34:04;3.50;;;2.80;;
17574;SDS011;8906;43.590;1.418;2022-07-10T00:36:31;4.75;;;2.60;;
17574;SDS011;8906;43.590;1.418;2022-07-10T00:38:58;2.90;;;2.70;;
17574;SDS011;8906;43.590;1.418;2022-07-10T00:41:25;3.08;;;2.50;;
17574;SDS011;8906;43.590;1.418;2022-07-10T00:43:52;3.38;;;3.03;;
17574;SDS011;8906;43.590;1.418;2022-07-10T00:46:20;3.45;;;2.30;;
17574;SDS011;8906;43.590;1.418;2022-07-10T00:48:49;4.22;;;2.42;;
17574;SDS011;8906;43.590;1.418;2022-07-10T00:51:16;4.47;;;3.33;;
17574;SDS011;8906;43.590;1.418;2022-07-10T00:53:45;2.88;;;2.60;;
17574;SDS011;8906;43.590;1.418;2022-07-10T00:56:13;2.92;;;2.55;;
17574;SDS011;8906;43.590;1.418;2022-07-10T00:58:43;3.65;;;2.60;;
17574;SDS011;8906;43.590;1.418;2022-07-10T01:01:11;3.95;;;2.65;;
17574;SDS011;8906;43.590;1.418;2022-07-10T01:03:38;2.40;;;2.20;;
17574;SDS011;8906;43.590;1.418;2022-07-10T01:06:07;3.92;;;2.40;;
17574;SDS011;8906;43.590;1.418;2022-07-10T01:08:34;3.10;;;2.25;;
17574;SDS011;8906;43.590;1.418;2022-07-10T01:11:01;2.65;;;2.45;;
17574;SDS011;8906;43.590;1.418;2022-07-10T01:13:29;3.83;;;2.25;;
17574;SDS011;8906;43.590;1.418;2022-07-10T01:15:56;2.78;;;2.45;;
17574;SDS011;8906;43.590;1.418;2022-07-10T01:18:25;2.88;;;2.30;;
17574;SDS011;8906;43.590;1.418;2022-07-10T01:20:54;2.40;;;2.20;;
17574;SDS011;8906;43.590;1.418;2022-07-10T01:23:21;3.30;;;2.25;;
17574;SDS011;8906;43.590;1.418;2022-07-10T01:25:49;3.40;;;2.72;;
17574;SDS011;8906;43.590;1.418;2022-07-10T01:28:16;2.95;;;2.75;;
17574;SDS011;8906;43.590;1.418;2022-07-10T01:30:44;3.50;;;2.35;;
17574;SDS011;8906;43.590;1.418;2022-07-10T01:33:11;3.28;;;2.75;;
17574;SDS011;8906;43.590;1.418;2022-07-10T01:35:38;2.63;;;2.10;;
17574;SDS011;8906;43.590;1.418;2022-07-10T01:38:06;5.03;;;2.83;;
17574;SDS011;8906;43.590;1.418;2022-07-10T01:40:33;2.70;;;2.50;;
17574;SDS011;8906;43.590;1.418;2022-07-10T01:43:00;2.72;;;2.30;;
17574;SDS011;8906;43.590;1.418;2022-07-10T01:45:28;2.75;;;2.47;;
17574;SDS011;8906;43.590;1.418;2022-07-10T01:47:55;3.42;;;2.83;;
17574;SDS011;8906;43.590;1.418;2022-07-10T01:50:22;2.88;;;2.67;;
17574;SDS011;8906;43.590;1.418;2022-07-10T01:52:49;3.22;;;2.92;;
17574;SDS011;8906;43.590;1.418;2022-07-10T01:55:17;3.92;;;2.97;;
17574;SDS011;8906;43.590;1.418;2022-07-10T01:57:44;4.13;;;2.72;;
17574;SDS011;8906;43.590;1.418;2022-07-10T02:00:12;3.13;;;2.92;;
17574;SDS011;8906;43.590;1.418;2022-07-10T02:02:39;3.30;;;3.00;;
17574;SDS011;8906;43.590;1.418;2022-07-10T02:05:06;2.28;;;2.17;;
17574;SDS011;8906;43.590;1.418;2022-07-10T02:07:32;4.18;;;3.25;;
17574;SDS011;8906;43.590;1.418;2022-07-10T02:09:59;4.20;;;2.95;;
17574;SDS011;8906;43.590;1.418;2022-07-10T02:12:28;6.38;;;3.25;;
17574;SDS011;8906;43.590;1.418;2022-07-10T02:14:55;3.20;;;2.58;;
17574;SDS011;8906;43.590;1.418;2022-07-10T02:17:24;2.95;;;2.70;;
17574;SDS011;8906;43.590;1.418;2022-07-10T02:19:51;5.38;;;3.08;;
17574;SDS011;8906;43.590;1.418;2022-07-10T02:22:18;2.95;;;2.72;;
17574;SDS011;8906;43.590;1.418;2022-07-10T02:24:45;2.83;;;2.50;;
17574;SDS011;8906;43.590;1.418;2022-07-10T02:27:12;3.58;;;2.53;;
17574;SDS011;8906;43.590;1.418;2022-07-10T02:29:40;5.15;;;3.08;;
17574;SDS011;8906;43.590;1.418;2022-07-10T02:32:07;3.47;;;3.00;;
17574;SDS011;8906;43.590;1.418;2022-07-10T02:34:34;3.13;;;2.83;;
17574;SDS011;8906;43.590;1.418;2022-07-10T02:37:01;3.95;;;2.50;;
17574;SDS011;8906;43.590;1.418;2022-07-10T02:39:28;2.92;;;2.33;;
17574;SDS011;8906;43.590;1.418;2022-07-10T02:41:55;6.30;;;2.53;;
17574;SDS011;8906;43.590;1.418;2022-07-10T02:44:22;3.08;;;2.22;;
17574;SDS011;8906;43.590;1.418;2022-07-10T02:46:50;2.58;;;2.28;;
17574;SDS011;8906;43.590;1.418;2022-07-10T02:49:17;3.63;;;3.03;;
17574;SDS011;8906;43.590;1.418;2022-07-10T02:51:44;2.40;;;2.20;;
17574;SDS011;8906;43.590;1.418;2022-07-10T02:54:11;2.72;;;2.50;;
17574;SDS011;8906;43.590;1.418;2022-07-10T02:56:38;3.50;;;2.42;;
17574;SDS011;8906;43.590;1.418;2022-07-10T02:59:05;4.30;;;2.83;;
17574;SDS011;8906;43.590;1.418;2022-07-10T03:01:32;4.00;;;2.60;;
17574;SDS011;8906;43.590;1.418;2022-07-10T03:04:00;2.53;;;2.33;;
17574;SDS011;8906;43.590;1.418;2022-07-10T03:06:27;3.72;;;2.33;;
17574;SDS011;8906;43.590;1.418;2022-07-10T03:08:54;2.15;;;1.88;;
17574;SDS011;8906;43.590;1.418;2022-07-10T03:11:21;3.70;;;2.47;;
17574;SDS011;8906;43.590;1.418;2022-07-10T03:13:48;2.40;;;2.15;;
17574;SDS011;8906;43.590;1.418;2022-07-10T03:16:15;4.43;;;2.30;;
17574;SDS011;8906;43.590;1.418;2022-07-10T03:18:42;2.60;;;2.40;;
17574;SDS011;8906;43.590;1.418;2022-07-10T03:21:11;3.90;;;2.40;;
17574;SDS011;8906;43.590;1.418;2022-07-10T03:23:38;5.50;;;2.38;;
17574;SDS011;8906;43.590;1.418;2022-07-10T03:26:05;3.47;;;2.35;;
17574;SDS011;8906;43.590;1.418;2022-07-10T03:28:32;2.53;;;2.00;;
17574;SDS011;8906;43.590;1.418;2022-07-10T03:31:00;3.45;;;2.13;;
17574;SDS011;8906;43.590;1.418;2022-07-10T03:33:28;2.67;;;2.47;;
17574;SDS011;8906;43.590;1.418;2022-07-10T03:35:55;2.92;;;2.10;;
17574;SDS011;8906;43.590;1.418;2022-07-10T03:38:23;4.03;;;2.33;;
17574;SDS011;8906;43.590;1.418;2022-07-10T03:40:50;3.22;;;2.83;;
17574;SDS011;8906;43.590;1.418;2022-07-10T03:43:17;3.75;;;2.53;;
17574;SDS011;8906;43.590;1.418;2022-07-10T03:45:44;2.88;;;2.33;;
17574;SDS011;8906;43.590;1.418;2022-07-10T03:48:11;2.63;;;2.15;;
17574;SDS011;8906;43.590;1.418;2022-07-10T03:50:38;2.50;;;2.30;;
17574;SDS011;8906;43.590;1.418;2022-07-10T03:53:05;3.22;;;2.50;;
17574;SDS011;8906;43.590;1.418;2022-07-10T03:55:34;2.75;;;2.55;;
17574;SDS011;8906;43.590;1.418;2022-07-10T03:58:01;3.92;;;2.13;;
17574;SDS011;8906;43.590;1.418;2022-07-10T04:00:28;4.05;;;2.60;;
17574;SDS011;8906;43.590;1.418;2022-07-10T04:02:57;3.78;;;2.58;;
17574;SDS011;8906;43.590;1.418;2022-07-10T04:05:25;2.85;;;2.58;;
17574;SDS011;8906;43.590;1.418;2022-07-10T04:07:52;4.15;;;3.42;;
17574;SDS011;8906;43.590;1.418;2022-07-10T04:10:19;3.22;;;2.38;;
17574;SDS011;8906;43.590;1.418;2022-07-10T04:12:48;3.33;;;2.80;;
17574;SDS011;8906;43.590;1.418;2022-07-10T04:15:16;2.25;;;2.05;;
17574;SDS011;8906;43.590;1.418;2022-07-10T04:17:43;2.35;;;2.00;;
17574;SDS011;8906;43.590;1.418;2022-07-10T04:20:10;2.65;;;2.13;;
17574;SDS011;8906;43.590;1.418;2022-07-10T04:22:37;3.13;;;2.08;;
17574;SDS011;8906;43.590;1.418;2022-07-10T04:25:04;2.45;;;2.25;;
17574;SDS011;8906;43.590;1.418;2022-07-10T04:27:32;3.78;;;1.88;;
17574;SDS011;8906;43.590;1.418;2022-07-10T04:30:00;2.72;;;2.33;;
17574;SDS011;8906;43.590;1.418;2022-07-10T04:32:28;1.90;;;1.80;;
17574;SDS011;8906;43.590;1.418;2022-07-10T04:34:55;3.40;;;2.90;;
17574;SDS011;8906;43.590;1.418;2022-07-10T04:37:22;1.90;;;1.80;;
17574;SDS011;8906;43.590;1.418;2022-07-10T04:39:49;4.13;;;2.78;;
17574;SDS011;8906;43.590;1.418;2022-07-10T04:42:16;2.70;;;2.35;;
17574;SDS011;8906;43.590;1.418;2022-07-10T04:44:43;2.75;;;1.73;;
17574;SDS011;8906;43.590;1.418;2022-07-10T04:47:11;3.03;;;2.28;;
17574;SDS011;8906;43.590;1.418;2022-07-10T04:49:38;2.30;;;2.13;;
17574;SDS011;8906;43.590;1.418;2022-07-10T04:52:06;3.78;;;3.03;;
17574;SDS011;8906;43.590;1.418;2022-07-10T04:54:33;2.90;;;2.13;;
17574;SDS011;8906;43.590;1.418;2022-07-10T04:56:59;2.88;;;2.30;;
17574;SDS011;8906;43.590;1.418;2022-07-10T04:59:26;2.47;;;2.28;;
17574;SDS011;8906;43.590;1.418;2022-07-10T05:01:53;3.05;;;2.13;;
17574;SDS011;8906;43.590;1.418;2022-07-10T05:04:22;2.72;;;2.53;;
17574;SDS011;8906;43.590;1.418;2022-07-10T05:06:49;3.88;;;2.60;;
17574;SDS011;8906;43.590;1.418;2022-07-10T05:09:16;2.55;;;2.35;;
17574;SDS011;8906;43.590;1.418;2022-07-10T05:11:44;3.50;;;3.00;;
17574;SDS011;8906;43.590;1.418;2022-07-10T05:14:12;4.20;;;2.50;;
17574;SDS011;8906;43.590;1.418;2022-07-10T05:16:39;3.67;;;2.85;;
17574;SDS011;8906;43.590;1.418;2022-07-10T05:19:06;2.47;;;2.28;;
17574;SDS011;8906;43.590;1.418;2022-07-10T05:21:34;7.70;;;2.72;;
17574;SDS011;8906;43.590;1.418;2022-07-10T05:24:01;2.97;;;2.42;;
17574;SDS011;8906;43.590;1.418;2022-07-10T05:26:28;3.00;;;2.70;;
17574;SDS011;8906;43.590;1.418;2022-07-10T05:28:55;2.05;;;1.95;;
17574;SDS011;8906;43.590;1.418;2022-07-10T05:31:22;3.58;;;3.00;;
17574;SDS011;8906;43.590;1.418;2022-07-10T05:33:48;2.30;;;2.10;;
17574;SDS011;8906;43.590;1.418;2022-07-10T05:36:15;2.55;;;2.35;;
17574;SDS011;8906;43.590;1.418;2022-07-10T05:38:44;3.03;;;2.60;;
17574;SDS011;8906;43.590;1.418;2022-07-10T05:41:11;3.67;;;2.47;;
17574;SDS011;8906;43.590;1.418;2022-07-10T05:43:38;2.67;;;2.47;;
17574;SDS011;8906;43.590;1.418;2022-07-10T05:46:05;3.55;;;2.88;;
17574;SDS011;8906;43.590;1.418;2022-07-10T05:48:32;4.22;;;2.75;;
17574;SDS011;8906;43.590;1.418;2022-07-10T05:50:59;2.70;;;2.50;;
17574;SDS011;8906;43.590;1.418;2022-07-10T05:53:26;4.43;;;2.50;;
17574;SDS011;8906;43.590;1.418;2022-07-10T05:55:54;2.83;;;2.50;;
17574;SDS011;8906;43.590;1.418;2022-07-10T05:58:25;3.42;;;3.00;;
17574;SDS011;8906;43.590;1.418;2022-07-10T06:00:52;3.30;;;2.53;;
17574;SDS011;8906;43.590;1.418;2022-07-10T06:03:19;3.03;;;2.50;;
17574;SDS011;8906;43.590;1.418;2022-07-10T06:05:46;3.40;;;2.40;;
17574;SDS011;8906;43.590;1.418;2022-07-10T06:08:13;5.80;;;3.17;;
17574;SDS011;8906;43.590;1.418;2022-07-10T06:10:40;5.63;;;3.40;;
17574;SDS011;8906;43.590;1.418;2022-07-10T06:13:10;2.85;;;2.58;;
17574;SDS011;8906;43.590;1.418;2022-07-10T06:15:37;4.57;;;2.90;;
17574;SDS011;8906;43.590;1.418;2022-07-10T06:18:04;5.97;;;2.67;;
17574;SDS011;8906;43.590;1.418;2022-07-10T06:20:31;4.00;;;3.38;;
17574;SDS011;8906;43.590;1.418;2022-07-10T06:22:58;4.35;;;3.53;;
17574;SDS011;8906;43.590;1.418;2022-07-10T06:25:25;3.45;;;2.35;;
17574;SDS011;8906;43.590;1.418;2022-07-10T06:27:52;4.43;;;2.70;;
17574;SDS011;8906;43.590;1.418;2022-07-10T06:30:20;6.70;;;3.78;;
17574;SDS011;8906;43.590;1.418;2022-07-10T06:32:47;3.53;;;2.90;;
17574;SDS011;8906;43.590;1.418;2022-07-10T06:35:14;3.53;;;2.33;;
17574;SDS011;8906;43.590;1.418;2022-07-10T06:37:41;2.45;;;2.25;;
17574;SDS011;8906;43.590;1.418;2022-07-10T06:40:09;3.63;;;3.33;;
17574;SDS011;8906;43.590;1.418;2022-07-10T06:42:39;3.20;;;3.00;;
17574;SDS011;8906;43.590;1.418;2022-07-10T06:45:06;4.07;;;2.85;;
17574;SDS011;8906;43.590;1.418;2022-07-10T06:47:35;4.57;;;3.13;;
17574;SDS011;8906;43.590;1.418;2022-07-10T06:50:19;4.93;;;2.30;;
17574;SDS011;8906;43.590;1.418;2022-07-10T06:52:47;3.15;;;2.95;;
17574;SDS011;8906;43.590;1.418;2022-07-10T06:55:14;2.80;;;2.60;;
17574;SDS011;8906;43.590;1.418;2022-07-10T06:57:42;3.88;;;3.13;;
17574;SDS011;8906;43.590;1.418;2022-07-10T07:00:09;9.20;;;3.55;;
17574;SDS011;8906;43.590;1.418;2022-07-10T07:02:38;3.78;;;3.38;;
17574;SDS011;8906;43.590;1.418;2022-07-10T07:05:06;3.15;;;2.85;;
17574;SDS011;8906;43.590;1.418;2022-07-10T07:07:33;3.78;;;2.95;;
17574;SDS011;8906;43.590;1.418;2022-07-10T07:10:01;4.15;;;3.17;;
17574;SDS011;8906;43.590;1.418;2022-07-10T07:12:28;3.58;;;2.60;;
17574;SDS011;8906;43.590;1.418;2022-07-10T07:14:55;4.10;;;2.90;;
17574;SDS011;8906;43.590;1.418;2022-07-10T07:17:22;2.38;;;2.17;;
17574;SDS011;8906;43.590;1.418;2022-07-10T07:19:52;3.10;;;2.80;;
17574;SDS011;8906;43.590;1.418;2022-07-10T07:22:39;3.25;;;2.95;;
17574;SDS011;8906;43.590;1.418;2022-07-10T07:25:23;3.70;;;3.40;;
17574;SDS011;8906;43.590;1.418;2022-07-10T07:27:50;4.50;;;2.60;;
17574;SDS011;8906;43.590;1.418;2022-07-10T07:30:17;3.50;;;3.08;;
17574;SDS011;8906;43.590;1.418;2022-07-10T07:32:45;4.70;;;3.20;;
17574;SDS011;8906;43.590;1.418;2022-07-10T07:35:14;3.42;;;3.13;;
17574;SDS011;8906;43.590;1.418;2022-07-10T07:37:42;3.05;;;2.78;;
17574;SDS011;8906;43.590;1.418;2022-07-10T07:40:11;4.63;;;2.65;;
17574;SDS011;8906;43.590;1.418;2022-07-10T07:42:39;6.07;;;3.00;;
17574;SDS011;8906;43.590;1.418;2022-07-10T07:45:07;4.35;;;2.60;;
17574;SDS011;8906;43.590;1.418;2022-07-10T07:47:42;2.85;;;2.65;;
17574;SDS011;8906;43.590;1.418;2022-07-10T07:50:10;4.97;;;2.80;;
17574;SDS011;8906;43.590;1.418;2022-07-10T07:52:38;4.30;;;3.15;;
17574;SDS011;8906;43.590;1.418;2022-07-10T07:55:05;4.18;;;3.67;;
17574;SDS011;8906;43.590;1.418;2022-07-10T07:57:33;6.82;;;3.88;;
17574;SDS011;8906;43.590;1.418;2022-07-10T08:00:00;4.03;;;2.47;;
17574;SDS011;8906;43.590;1.418;2022-07-10T08:02:27;4.20;;;3.08;;
17574;SDS011;8906;43.590;1.418;2022-07-10T08:04:54;3.03;;;2.83;;
17574;SDS011;8906;43.590;1.418;2022-07-10T08:07:21;3.75;;;3.05;;
17574;SDS011;8906;43.590;1.418;2022-07-10T08:09:49;5.28;;;2.83;;
17574;SDS011;8906;43.590;1.418;2022-07-10T08:12:16;3.42;;;2.85;;
17574;SDS011;8906;43.590;1.418;2022-07-10T08:14:43;2.92;;;2.47;;
17574;SDS011;8906;43.590;1.418;2022-07-10T08:17:11;4.55;;;2.50;;
17574;SDS011;8906;43.590;1.418;2022-07-10T08:19:38;2.70;;;2.50;;
17574;SDS011;8906;43.590;1.418;2022-07-10T08:22:05;3.33;;;3.08;;
17574;SDS011;8906;43.590;1.418;2022-07-10T08:24:32;3.30;;;2.70;;
17574;SDS011;8906;43.590;1.418;2022-07-10T08:27:00;4.20;;;3.13;;
17574;SDS011;8906;43.590;1.418;2022-07-10T08:29:27;3.42;;;3.10;;
17574;SDS011;8906;43.590;1.418;2022-07-10T08:31:54;3.30;;;2.83;;
17574;SDS011;8906;43.590;1.418;2022-07-10T08:34:21;4.32;;;2.78;;
17574;SDS011;8906;43.590;1.418;2022-07-10T08:36:48;3.13;;;2.83;;
17574;SDS011;8906;43.590;1.418;2022-07-10T08:39:15;2.35;;;2.10;;
17574;SDS011;8906;43.590;1.418;2022-07-10T08:41:46;9.85;;;3.08;;
17574;SDS011;8906;43.590;1.418;2022-07-10T08:44:16;3.13;;;2.63;;
17574;SDS011;8906;43.590;1.418;2022-07-10T08:46:43;2.40;;;2.20;;
17574;SDS011;8906;43.590;1.418;2022-07-10T08:49:11;3.45;;;3.03;;
17574;SDS011;8906;43.590;1.418;2022-07-10T08:51:40;4.68;;;2.58;;
17574;SDS011;8906;43.590;1.418;2022-07-10T08:54:11;2.72;;;2.22;;
17574;SDS011;8906;43.590;1.418;2022-07-10T08:56:40;2.67;;;2.47;;
17574;SDS011;8906;43.590;1.418;2022-07-10T08:59:07;3.22;;;2.03;;
17574;SDS011;8906;43.590;1.418;2022-07-10T09:01:37;4.07;;;2.13;;
17574;SDS011;8906;43.590;1.418;2022-07-10T09:04:04;2.70;;;2.50;;
17574;SDS011;8906;43.590;1.418;2022-07-10T09:06:31;2.65;;;2.45;;
17574;SDS011;8906;43.590;1.418;2022-07-10T09:08:59;2.72;;;2.40;;
17574;SDS011;8906;43.590;1.418;2022-07-10T09:11:28;3.03;;;2.80;;
17574;SDS011;8906;43.590;1.418;2022-07-10T09:13:56;2.28;;;2.08;;
17574;SDS011;8906;43.590;1.418;2022-07-10T09:16:25;2.20;;;2.00;;
17574;SDS011;8906;43.590;1.418;2022-07-10T09:18:54;2.03;;;1.90;;
17574;SDS011;8906;43.590;1.418;2022-07-10T09:21:23;3.90;;;2.78;;
17574;SDS011;8906;43.590;1.418;2022-07-10T09:23:50;2.60;;;2.40;;
17574;SDS011;8906;43.590;1.418;2022-07-10T09:26:22;2.15;;;2.05;;
17574;SDS011;8906;43.590;1.418;2022-07-10T09:28:50;4.30;;;2.60;;
17574;SDS011;8906;43.590;1.418;2022-07-10T09:31:31;2.72;;;2.53;;
17574;SDS011;8906;43.590;1.418;2022-07-10T09:34:16;3.03;;;2.72;;
17574;SDS011;8906;43.590;1.418;2022-07-10T09:36:43;2.72;;;2.53;;
17574;SDS011;8906;43.590;1.418;2022-07-10T09:39:10;2.60;;;2.40;;
17574;SDS011;8906;43.590;1.418;2022-07-10T09:41:37;2.97;;;2.78;;
17574;SDS011;8906;43.590;1.418;2022-07-10T09:44:04;2.47;;;2.28;;
17574;SDS011;8906;43.590;1.418;2022-07-10T09:46:33;2.55;;;2.35;;
17574;SDS011;8906;43.590;1.418;2022-07-10T09:49:05;3.00;;;2.42;;
17574;SDS011;8906;43.590;1.418;2022-07-10T09:51:35;3.13;;;2.45;;
17574;SDS011;8906;43.590;1.418;2022-07-10T09:54:04;2.53;;;2.33;;
17574;SDS011;8906;43.590;1.418;2022-07-10T09:56:41;2.80;;;2.60;;
17574;SDS011;8906;43.590;1.418;2022-07-10T09:59:10;5.05;;;3.08;;
17574;SDS011;8906;43.590;1.418;2022-07-10T10:01:41;2.92;;;2.72;;
17574;SDS011;8906;43.590;1.418;2022-07-10T10:04:11;2.40;;;2.28;;
17574;SDS011;8906;43.590;1.418;2022-07-10T10:06:40;3.38;;;2.60;;
17574;SDS011;8906;43.590;1.418;2022-07-10T10:09:09;2.92;;;2.72;;
17574;SDS011;8906;43.590;1.418;2022-07-10T10:11:43;2.42;;;2.22;;
17574;SDS011;8906;43.590;1.418;2022-07-10T10:14:11;2.90;;;2.70;;
17574;SDS011;8906;43.590;1.418;2022-07-10T10:16:39;2.65;;;2.45;;
17574;SDS011;8906;43.590;1.418;2022-07-10T10:19:10;3.97;;;2.60;;
17574;SDS011;8906;43.590;1.418;2022-07-10T10:21:56;2.42;;;2.22;;
17574;SDS011;8906;43.590;1.418;2022-07-10T10:24:24;2.35;;;2.20;;
17574;SDS011;8906;43.590;1.418;2022-07-10T10:26:52;2.78;;;2.60;;
17574;SDS011;8906;43.590;1.418;2022-07-10T10:29:19;2.60;;;2.20;;
17574;SDS011;8906;43.590;1.418;2022-07-10T10:31:47;2.10;;;2.00;;
17574;SDS011;8906;43.590;1.418;2022-07-10T10:34:14;3.45;;;2.00;;
17574;SDS011;8906;43.590;1.418;2022-07-10T10:37:06;2.25;;;2.05;;
17574;SDS011;8906;43.590;1.418;2022-07-10T10:39:53;2.00;;;1.90;;
17574;SDS011;8906;43.590;1.418;2022-07-10T10:42:34;2.60;;;2.40;;
17574;SDS011;8906;43.590;1.418;2022-07-10T10:47:58;1.88;;;1.77;;
17574;SDS011;8906;43.590;1.418;2022-07-10T10:53:14;1.90;;;1.75;;
17574;SDS011;8906;43.590;1.418;2022-07-10T10:58:42;2.10;;;1.90;;
17574;SDS011;8906;43.590;1.418;2022-07-10T11:01:23;2.60;;;2.50;;
17574;SDS011;8906;43.590;1.418;2022-07-10T11:06:45;4.10;;;2.17;;
17574;SDS011;8906;43.590;1.418;2022-07-10T11:09:24;2.17;;;1.60;;
17574;SDS011;8906;43.590;1.418;2022-07-10T11:12:02;2.45;;;2.25;;
17574;SDS011;8906;43.590;1.418;2022-07-10T11:14:31;1.90;;;1.80;;
17574;SDS011;8906;43.590;1.418;2022-07-10T11:16:58;3.35;;;2.10;;
17574;SDS011;8906;43.590;1.418;2022-07-10T11:19:26;4.78;;;4.38;;
17574;SDS011;8906;43.590;1.418;2022-07-10T11:21:58;3.67;;;2.60;;
17574;SDS011;8906;43.590;1.418;2022-07-10T11:24:37;2.10;;;1.98;;
17574;SDS011;8906;43.590;1.418;2022-07-10T11:27:15;3.55;;;1.92;;
17574;SDS011;8906;43.590;1.418;2022-07-10T11:29:58;2.30;;;2.10;;
17574;SDS011;8906;43.590;1.418;2022-07-10T11:32:26;1.55;;;1.45;;
17574;SDS011;8906;43.590;1.418;2022-07-10T11:34:54;1.85;;;1.70;;
17574;SDS011;8906;43.590;1.418;2022-07-10T11:37:21;2.10;;;1.90;;
17574;SDS011;8906;43.590;1.418;2022-07-10T11:39:54;1.70;;;1.60;;
17574;SDS011;8906;43.590;1.418;2022-07-10T11:42:47;1.45;;;1.33;;
17574;SDS011;8906;43.590;1.418;2022-07-10T11:45:25;2.55;;;2.10;;
17574;SDS011;8906;43.590;1.418;2022-07-10T11:47:56;2.03;;;1.92;;
17574;SDS011;8906;43.590;1.418;2022-07-10T11:50:23;2.33;;;2.08;;
17574;SDS011;8906;43.590;1.418;2022-07-10T11:52:51;3.20;;;1.77;;
17574;SDS011;8906;43.590;1.418;2022-07-10T11:55:22;3.58;;;1.95;;
17574;SDS011;8906;43.590;1.418;2022-07-10T11:57:50;2.13;;;1.88;;
17574;SDS011;8906;43.590;1.418;2022-07-10T12:00:21;2.45;;;1.40;;
17574;SDS011;8906;43.590;1.418;2022-07-10T12:02:49;2.42;;;2.13;;
17574;SDS011;8906;43.590;1.418;2022-07-10T12:05:29;1.77;;;1.60;;
17574;SDS011;8906;43.590;1.418;2022-07-10T12:07:59;2.35;;;1.40;;
17574;SDS011;8906;43.590;1.418;2022-07-10T12:10:28;1.73;;;1.63;;
17574;SDS011;8906;43.590;1.418;2022-07-10T12:13:03;2.35;;;1.95;;
17574;SDS011;8906;43.590;1.418;2022-07-10T12:15:32;3.17;;;2.88;;
17574;SDS011;8906;43.590;1.418;2022-07-10T12:18:00;2.58;;;1.77;;
17574;SDS011;8906;43.590;1.418;2022-07-10T12:20:27;2.42;;;2.22;;
17574;SDS011;8906;43.590;1.418;2022-07-10T12:22:54;1.65;;;1.55;;
17574;SDS011;8906;43.590;1.418;2022-07-10T12:25:21;2.30;;;1.75;;
17574;SDS011;8906;43.590;1.418;2022-07-10T12:27:50;2.13;;;1.70;;
17574;SDS011;8906;43.590;1.418;2022-07-10T12:30:21;2.40;;;2.20;;
17574;SDS011;8906;43.590;1.418;2022-07-10T12:32:49;2.20;;;1.98;;
17574;SDS011;8906;43.590;1.418;2022-07-10T12:35:16;3.10;;;1.95;;
17574;SDS011;8906;43.590;1.418;2022-07-10T12:37:48;2.08;;;1.80;;
17574;SDS011;8906;43.590;1.418;2022-07-10T12:40:31;2.38;;;2.17;;
17574;SDS011;8906;43.590;1.418;2022-07-10T12:43:03;2.00;;;1.90;;
17574;SDS011;8906;43.590;1.418;2022-07-10T12:45:32;2.47;;;2.28;;
17574;SDS011;8906;43.590;1.418;2022-07-10T12:47:59;2.65;;;2.00;;
17574;SDS011;8906;43.590;1.418;2022-07-10T12:50:29;2.33;;;1.52;;
17574;SDS011;8906;43.590;1.418;2022-07-10T12:53:08;4.15;;;1.85;;
17574;SDS011;8906;43.590;1.418;2022-07-10T12:55:37;2.13;;;1.67;;
17574;SDS011;8906;43.590;1.418;2022-07-10T12:58:08;1.92;;;1.75;;
17574;SDS011;8906;43.590;1.418;2022-07-10T13:00:43;1.83;;;1.70;;
17574;SDS011;8906;43.590;1.418;2022-07-10T13:03:16;1.73;;;1.63;;
17574;SDS011;8906;43.590;1.418;2022-07-10T13:05:44;2.85;;;2.00;;
17574;SDS011;8906;43.590;1.418;2022-07-10T13:08:12;2.65;;;1.60;;
17574;SDS011;8906;43.590;1.418;2022-07-10T13:10:42;2.85;;;1.45;;
17574;SDS011;8906;43.590;1.418;2022-07-10T13:13:12;1.42;;;1.27;;
17574;SDS011;8906;43.590;1.418;2022-07-10T13:15:39;4.72;;;1.63;;
17574;SDS011;8906;43.590;1.418;2022-07-10T13:18:12;3.20;;;1.50;;
17574;SDS011;8906;43.590;1.418;2022-07-10T13:20:40;2.25;;;1.70;;
17574;SDS011;8906;43.590;1.418;2022-07-10T13:23:07;1.50;;;1.40;;
17574;SDS011;8906;43.590;1.418;2022-07-10T13:25:34;1.83;;;1.63;;
17574;SDS011;8906;43.590;1.418;2022-07-10T13:28:03;1.83;;;1.73;;
17574;SDS011;8906;43.590;1.418;2022-07-10T13:30:31;2.50;;;1.83;;
17574;SDS011;8906;43.590;1.418;2022-07-10T13:32:58;1.58;;;1.42;;
17574;SDS011;8906;43.590;1.418;2022-07-10T13:35:27;3.33;;;1.17;;
17574;SDS011;8906;43.590;1.418;2022-07-10T13:37:54;1.50;;;1.40;;
17574;SDS011;8906;43.590;1.418;2022-07-10T13:40:24;1.52;;;1.40;;
17574;SDS011;8906;43.590;1.418;2022-07-10T13:42:51;1.73;;;1.63;;
17574;SDS011;8906;43.590;1.418;2022-07-10T13:45:19;1.40;;;1.30;;
17574;SDS011;8906;43.590;1.418;2022-07-10T13:47:47;1.40;;;1.30;;
17574;SDS011;8906;43.590;1.418;2022-07-10T13:50:15;3.40;;;1.92;;
17574;SDS011;8906;43.590;1.418;2022-07-10T13:52:42;1.42;;;1.33;;
17574;SDS011;8906;43.590;1.418;2022-07-10T13:55:09;1.60;;;1.50;;
17574;SDS011;8906;43.590;1.418;2022-07-10T13:57:37;1.48;;;1.38;;
17574;SDS011;8906;43.590;1.418;2022-07-10T14:00:04;1.80;;;1.65;;
17574;SDS011;8906;43.590;1.418;2022-07-10T14:02:32;1.73;;;1.63;;
17574;SDS011;8906;43.590;1.418;2022-07-10T14:05:01;1.30;;;1.20;;
17574;SDS011;8906;43.590;1.418;2022-07-10T14:07:28;3.28;;;1.40;;
17574;SDS011;8906;43.590;1.418;2022-07-10T14:09:55;1.30;;;1.20;;
17574;SDS011;8906;43.590;1.418;2022-07-10T14:12:23;1.73;;;1.63;;
17574;SDS011;8906;43.590;1.418;2022-07-10T14:14:50;2.30;;;1.40;;
17574;SDS011;8906;43.590;1.418;2022-07-10T14:17:17;1.58;;;1.05;;
17574;SDS011;8906;43.590;1.418;2022-07-10T14:19:44;1.38;;;1.20;;
17574;SDS011;8906;43.590;1.418;2022-07-10T14:22:13;1.23;;;1.13;;
17574;SDS011;8906;43.590;1.418;2022-07-10T14:24:40;1.50;;;1.40;;
17574;SDS011;8906;43.590;1.418;2022-07-10T14:27:07;3.63;;;2.65;;
17574;SDS011;8906;43.590;1.418;2022-07-10T14:29:34;4.93;;;2.10;;
17574;SDS011;8906;43.590;1.418;2022-07-10T14:32:01;2.35;;;1.65;;
17574;SDS011;8906;43.590;1.418;2022-07-10T14:34:28;1.73;;;1.58;;
17574;SDS011;8906;43.590;1.418;2022-07-10T14:36:55;1.40;;;1.30;;
17574;SDS011;8906;43.590;1.418;2022-07-10T14:39:23;1.75;;;1.65;;
17574;SDS011;8906;43.590;1.418;2022-07-10T14:41:50;1.02;;;1.00;;
17574;SDS011;8906;43.590;1.418;2022-07-10T14:44:17;2.10;;;1.45;;
17574;SDS011;8906;43.590;1.418;2022-07-10T14:46:44;1.50;;;1.40;;
17574;SDS011;8906;43.590;1.418;2022-07-10T14:49:11;2.65;;;1.48;;
17574;SDS011;8906;43.590;1.418;2022-07-10T14:51:38;1.55;;;1.45;;
17574;SDS011;8906;43.590;1.418;2022-07-10T14:54:06;2.70;;;1.30;;
17574;SDS011;8906;43.590;1.418;2022-07-10T14:56:35;2.00;;;1.80;;
17574;SDS011;8906;43.590;1.418;2022-07-10T14:59:02;2.60;;;1.80;;
17574;SDS011;8906;43.590;1.418;2022-07-10T15:01:29;1.88;;;1.27;;
17574;SDS011;8906;43.590;1.418;2022-07-10T15:03:56;3.35;;;1.88;;
17574;SDS011;8906;43.590;1.418;2022-07-10T15:06:23;2.15;;;1.02;;
17574;SDS011;8906;43.590;1.418;2022-07-10T15:08:50;1.30;;;1.15;;
17574;SDS011;8906;43.590;1.418;2022-07-10T15:11:17;1.30;;;1.20;;
17574;SDS011;8906;43.590;1.418;2022-07-10T15:13:48;1.80;;;1.20;;
17574;SDS011;8906;43.590;1.418;2022-07-10T15:16:17;1.63;;;1.13;;
17574;SDS011;8906;43.590;1.418;2022-07-10T15:18:44;1.30;;;1.20;;
17574;SDS011;8906;43.590;1.418;2022-07-10T15:21:11;3.53;;;1.10;;